Ankergracht — PCQL — position and weather

sailwx.info

Track history (hours):
 
Tides and Currents Weather Stations Pressure Air Temp Water Temp Dewpoint Dewpoint Depression Visibility Wind Speed Wind Dir Waves Ship Positions

Ankergracht

Last reported at 2015-Jan-23 05:28 UTC. Time now 2015-Feb-01 13:21 UTC.
Position N 54°10' E 004°46'.
Warning: this ship's position is 9 days out of date.

Length 130 m; beam 19 m; draft 9 m.

Type: Cargo ship. MMSI: 244852000.

Date/timePositionNaut miles runAvg speedWind from/ knotsBaromVisibWave heightAir tempDewpointWater temp
2015-Jan-23 05:28N 54°10' E 004°46'1314.0
2015-Jan-23 04:33N 53°57' E 004°50'1413.9
2015-Jan-23 03:33N 53°43' E 004°51'1313.1
2015-Jan-23 02:33N 53°31' E 004°45'1313.0
2015-Jan-23 01:33N 53°19' E 004°37'1412.8
2015-Jan-23 00:30N 53°06' E 004°27'1212.8
2015-Jan-22 23:34N 52°56' E 004°18'1312.5
2015-Jan-22 22:34N 52°45' E 004°09'1211.7
2015-Jan-22 21:34N 52°33' E 004°08'1313.4
2015-Jan-22 20:33N 52°28' E 004°29'6 6.2
2015-Jan-22 19:33N 52°28' E 004°39'9 9.1
2015-Jan-22 18:33N 52°24' E 004°53'3 2.6
2015-Jan-22 17:33N 52°23' E 004°57'0 0.0
2015-Jan-22 16:33N 52°23' E 004°57'0 0.0
2015-Jan-22 15:33N 52°23' E 004°57'0 0.0
2015-Jan-22 14:33N 52°23' E 004°57'0 0.0
2015-Jan-22 13:33N 52°23' E 004°57'0 0.0
2015-Jan-22 12:33N 52°23' E 004°57'0 0.0
2015-Jan-22 11:33N 52°23' E 004°57'0 0.0
2015-Jan-22 10:33N 52°23' E 004°57'0 0.0
2015-Jan-22 09:33N 52°23' E 004°57'0 0.0
2015-Jan-22 08:32N 52°23' E 004°57'0 0.0
2015-Jan-22 07:32N 52°23' E 004°57'0 0.0
2015-Jan-22 06:32N 52°23' E 004°57'0 0.0
2015-Jan-22 05:32N 52°23' E 004°57'0 0.0
2015-Jan-22 04:32N 52°23' E 004°57'0 0.0
2015-Jan-22 03:32N 52°23' E 004°57'0 0.0
2015-Jan-22 02:32N 52°23' E 004°57'0 0.0
2015-Jan-22 01:32N 52°23' E 004°57'0 0.0
2015-Jan-22 00:32N 52°23' E 004°57'0 0.0
2015-Jan-21 23:32N 52°23' E 004°57'0 0.0
2015-Jan-21 22:50N 52°23' E 004°57'0 0.1
2015-Jan-21 22:44N 52°23' E 004°57'0 0.0
2015-Jan-21 22:32N 52°23' E 004°57'0 0.0
2015-Jan-21 21:32N 52°23' E 004°57'0 0.0
2015-Jan-21 20:32N 52°23' E 004°57'0 0.0
2015-Jan-21 19:32N 52°23' E 004°57'0 0.0
2015-Jan-21 18:32N 52°23' E 004°57'0 0.0
2015-Jan-21 17:32N 52°23' E 004°57'0 0.0
2015-Jan-21 16:32N 52°23' E 004°57'0 0.0
2015-Jan-21 15:32N 52°23' E 004°57'0 0.0
2015-Jan-21 14:32N 52°23' E 004°57'0 0.0
2015-Jan-21 13:32N 52°23' E 004°57'0 0.0
2015-Jan-21 12:32N 52°23' E 004°57'0 0.0
2015-Jan-21 11:32N 52°23' E 004°57'0 0.0
2015-Jan-21 10:32N 52°23' E 004°57'0 0.0
2015-Jan-21 09:32N 52°23' E 004°57'0 0.0
2015-Jan-21 08:33N 52°23' E 004°57'0 0.0
2015-Jan-21 07:34N 52°23' E 004°57'0 0.0
2015-Jan-21 06:33N 52°23' E 004°57'0 0.0
2015-Jan-21 05:33N 52°23' E 004°57'0 0.0
2015-Jan-21 04:34N 52°23' E 004°57'0 0.0
2015-Jan-21 03:34N 52°23' E 004°57'0 0.0
2015-Jan-21 02:34N 52°23' E 004°57'0 0.0
2015-Jan-21 01:33N 52°23' E 004°57'1 1.2
2015-Jan-21 00:33N 52°23' E 004°55'8 8.2
2015-Jan-20 23:33N 52°26' E 004°43'5 4.6
2015-Jan-20 22:34N 52°28' E 004°36'1 0.8
2015-Jan-20 21:31N 52°28' E 004°35'0 0.0
2015-Jan-20 20:31N 52°28' E 004°35'0 0.0
2015-Jan-20 19:31N 52°28' E 004°35'0 0.0
2015-Jan-20 18:31N 52°28' E 004°35'0 0.0
2015-Jan-20 17:31N 52°28' E 004°35'0 0.0
2015-Jan-20 16:31N 52°28' E 004°35'0 0.0
2015-Jan-20 15:31N 52°28' E 004°35'0 0.0
2015-Jan-20 14:31N 52°28' E 004°35'0 0.0
2015-Jan-20 13:31N 52°28' E 004°35'0 0.0
2015-Jan-20 12:31N 52°28' E 004°35'0 0.0
2015-Jan-20 11:31N 52°28' E 004°35'0 0.0
2015-Jan-20 10:31N 52°28' E 004°35'0 0.0
2015-Jan-20 09:31N 52°28' E 004°35'0 0.0
2015-Jan-20 08:31N 52°28' E 004°35'0 0.0
2015-Jan-20 07:31N 52°28' E 004°35'0 0.0
2015-Jan-20 06:31N 52°28' E 004°35'0 0.0
2015-Jan-20 05:31N 52°28' E 004°35'0 0.0
2015-Jan-20 04:31N 52°28' E 004°35'0 0.0
2015-Jan-20 03:31N 52°28' E 004°35'0 0.0
2015-Jan-20 02:19N 52°28' E 004°35'0 0.0
2015-Jan-20 01:19N 52°28' E 004°35'0 0.0
2015-Jan-20 00:31N 52°28' E 004°35'0 0.0
2015-Jan-19 23:31N 52°28' E 004°35'0 0.0
2015-Jan-19 22:31N 52°28' E 004°35'0 0.0
2015-Jan-19 21:31N 52°28' E 004°35'0 0.0
2015-Jan-19 20:31N 52°28' E 004°35'0 0.0
2015-Jan-19 19:28N 52°28' E 004°35'0 0.0
2015-Jan-19 18:34N 52°28' E 004°35'0 0.0
2015-Jan-19 17:34N 52°28' E 004°35'0 0.0
2015-Jan-19 16:30N 52°28' E 004°35'0 0.0
2015-Jan-19 15:33N 52°28' E 004°35'0 0.0
2015-Jan-19 14:33N 52°28' E 004°35'0 0.0
2015-Jan-19 13:33N 52°28' E 004°35'0 0.0
2015-Jan-19 12:30N 52°28' E 004°35'0 0.0
2015-Jan-19 11:33N 52°28' E 004°35'0 0.0
2015-Jan-19 10:33N 52°28' E 004°35'0 0.0
2015-Jan-19 09:33N 52°28' E 004°35'0 0.0
2015-Jan-19 08:33N 52°28' E 004°35'0 0.0
2015-Jan-19 07:33N 52°28' E 004°35'0 0.0
2015-Jan-19 06:33N 52°28' E 004°35'0 0.0
2015-Jan-19 05:33N 52°28' E 004°35'0 0.0
2015-Jan-19 04:33N 52°28' E 004°35'0 0.0
2015-Jan-19 03:33N 52°28' E 004°35'0 0.0
2015-Jan-19 02:33N 52°28' E 004°35'3 2.6
2015-Jan-19 01:34N 52°28' E 004°31'9 9.1
2015-Jan-19 00:33N 52°29' E 004°16'9 8.6
2015-Jan-18 23:33N 52°28' E 004°02'9 8.8
2015-Jan-18 22:33N 52°26' E 003°48'70 8.8
2015-Jan-18 14:33N 51°38' E 002°25'10 9.9
2015-Jan-18 13:33N 51°30' E 002°15'1110.5
2015-Jan-18 12:33N 51°20' E 002°09'1111.1
2015-Jan-18 11:34N 51°12' E 001°58'1211.9
2015-Jan-18 10:34N 51°05' E 001°42'1212.3
2015-Jan-18 09:33N 50°55' E 001°29'5410.0
2015-Jan-18 04:08N 50°22' E 000°22'11010.9
2015-Jan-17 18:00N 49°54' W 002°24'15813.1 250 / 71012.8 0.5 9.2 2.311.2
2015-Jan-17 06:00N 48°30' W 005°48'15112.6 250 / 111016.427.0 0.5 9.2 4.311.8
2015-Jan-16 18:00N 47°18' W 009°06'108 9.0 250 / 141016.810.8 1.0 8.8 3.112.2
2015-Jan-16 06:00N 45°42' W 010°18'108 9.0 300 / 211008.010.8 10.2 3.813.1
2015-Jan-15 18:00N 43°54' W 010°18'234 9.8 220 / 101006.5 5.4 0.510.0 4.713.3
2015-Jan-14 18:00N 40°00' W 010°00'5910.8 230 / 81024.210.8 0.514.0 8.314.8
2015-Jan-14 12:32N 39°01' W 009°53'1111.1
2015-Jan-14 11:33N 38°50' W 009°52'1211.7
2015-Jan-14 10:33N 38°39' W 009°52'1211.6
2015-Jan-14 09:33N 38°27' W 009°50'1211.7
2015-Jan-14 08:31N 38°15' W 009°49'1411.4
2015-Jan-14 07:17N 38°01' W 009°48'1211.4
2015-Jan-14 06:12N 37°49' W 009°47'837.3
2015-Jan-14 06:00N 37°42' W 009°42'9011.3 1031.010.8 15.013.015.8
2015-Jan-13 22:04N 36°12' W 009°41'5413.3
2015-Jan-13 18:00N 35°18' W 009°36'5710.4 060 / 121024.910.8 1.016.913.417.0
2015-Jan-13 12:33N 34°21' W 009°34'1711.8
2015-Jan-13 11:05N 34°04' W 009°32'  
Track history (hours):
 
Tides and Currents Weather Stations Pressure Air Temp Water Temp Dewpoint Dewpoint Depression Visibility Wind Speed Wind Dir Waves Ship Positions

Ankergracht

Last reported at 2015-Jan-23 05:28 UTC. Time now 2015-Feb-01 13:21 UTC.
Position N 54°10' E 004°46'.
Warning: this ship's position is 9 days out of date.

Length 130 m; beam 19 m; draft 9 m.

Type: Cargo ship. MMSI: 244852000.

Date/timePositionNaut miles runAvg speedWind from/ knotsBaromVisibWave heightAir tempDewpointWater temp
2015-Jan-23 05:28N 54°10' E 004°46'1314.0
2015-Jan-23 04:33N 53°57' E 004°50'1413.9
2015-Jan-23 03:33N 53°43' E 004°51'1313.1
2015-Jan-23 02:33N 53°31' E 004°45'1313.0
2015-Jan-23 01:33N 53°19' E 004°37'1412.8
2015-Jan-23 00:30N 53°06' E 004°27'1212.8
2015-Jan-22 23:34N 52°56' E 004°18'1312.5
2015-Jan-22 22:34N 52°45' E 004°09'1211.7
2015-Jan-22 21:34N 52°33' E 004°08'1313.4
2015-Jan-22 20:33N 52°28' E 004°29'6 6.2
2015-Jan-22 19:33N 52°28' E 004°39'9 9.1
2015-Jan-22 18:33N 52°24' E 004°53'3 2.6
2015-Jan-22 17:33N 52°23' E 004°57'0 0.0
2015-Jan-22 16:33N 52°23' E 004°57'0 0.0
2015-Jan-22 15:33N 52°23' E 004°57'0 0.0
2015-Jan-22 14:33N 52°23' E 004°57'0 0.0
2015-Jan-22 13:33N 52°23' E 004°57'0 0.0
2015-Jan-22 12:33N 52°23' E 004°57'0 0.0
2015-Jan-22 11:33N 52°23' E 004°57'0 0.0
2015-Jan-22 10:33N 52°23' E 004°57'0 0.0
2015-Jan-22 09:33N 52°23' E 004°57'0 0.0
2015-Jan-22 08:32N 52°23' E 004°57'0 0.0
2015-Jan-22 07:32N 52°23' E 004°57'0 0.0
2015-Jan-22 06:32N 52°23' E 004°57'0 0.0
2015-Jan-22 05:32N 52°23' E 004°57'0 0.0
2015-Jan-22 04:32N 52°23' E 004°57'0 0.0
2015-Jan-22 03:32N 52°23' E 004°57'0 0.0
2015-Jan-22 02:32N 52°23' E 004°57'0 0.0
2015-Jan-22 01:32N 52°23' E 004°57'0 0.0
2015-Jan-22 00:32N 52°23' E 004°57'0 0.0
2015-Jan-21 23:32N 52°23' E 004°57'0 0.0
2015-Jan-21 22:50N 52°23' E 004°57'0 0.1
2015-Jan-21 22:44N 52°23' E 004°57'0 0.0
2015-Jan-21 22:32N 52°23' E 004°57'0 0.0
2015-Jan-21 21:32N 52°23' E 004°57'0 0.0
2015-Jan-21 20:32N 52°23' E 004°57'0 0.0
2015-Jan-21 19:32N 52°23' E 004°57'0 0.0
2015-Jan-21 18:32N 52°23' E 004°57'0 0.0
2015-Jan-21 17:32N 52°23' E 004°57'0 0.0
2015-Jan-21 16:32N 52°23' E 004°57'0 0.0
2015-Jan-21 15:32N 52°23' E 004°57'0 0.0
2015-Jan-21 14:32N 52°23' E 004°57'0 0.0
2015-Jan-21 13:32N 52°23' E 004°57'0 0.0
2015-Jan-21 12:32N 52°23' E 004°57'0 0.0
2015-Jan-21 11:32N 52°23' E 004°57'0 0.0
2015-Jan-21 10:32N 52°23' E 004°57'0 0.0
2015-Jan-21 09:32N 52°23' E 004°57'0 0.0
2015-Jan-21 08:33N 52°23' E 004°57'0 0.0
2015-Jan-21 07:34N 52°23' E 004°57'0 0.0
2015-Jan-21 06:33N 52°23' E 004°57'0 0.0
2015-Jan-21 05:33N 52°23' E 004°57'0 0.0
2015-Jan-21 04:34N 52°23' E 004°57'0 0.0
2015-Jan-21 03:34N 52°23' E 004°57'0 0.0
2015-Jan-21 02:34N 52°23' E 004°57'0 0.0
2015-Jan-21 01:33N 52°23' E 004°57'1 1.2
2015-Jan-21 00:33N 52°23' E 004°55'8 8.2
2015-Jan-20 23:33N 52°26' E 004°43'5 4.6
2015-Jan-20 22:34N 52°28' E 004°36'1 0.8
2015-Jan-20 21:31N 52°28' E 004°35'0 0.0
2015-Jan-20 20:31N 52°28' E 004°35'0 0.0
2015-Jan-20 19:31N 52°28' E 004°35'0 0.0
2015-Jan-20 18:31N 52°28' E 004°35'0 0.0
2015-Jan-20 17:31N 52°28' E 004°35'0 0.0
2015-Jan-20 16:31N 52°28' E 004°35'0 0.0
2015-Jan-20 15:31N 52°28' E 004°35'0 0.0
2015-Jan-20 14:31N 52°28' E 004°35'0 0.0
2015-Jan-20 13:31N 52°28' E 004°35'0 0.0
2015-Jan-20 12:31N 52°28' E 004°35'0 0.0
2015-Jan-20 11:31N 52°28' E 004°35'0 0.0
2015-Jan-20 10:31N 52°28' E 004°35'0 0.0
2015-Jan-20 09:31N 52°28' E 004°35'0 0.0
2015-Jan-20 08:31N 52°28' E 004°35'0 0.0
2015-Jan-20 07:31N 52°28' E 004°35'0 0.0
2015-Jan-20 06:31N 52°28' E 004°35'0 0.0
2015-Jan-20 05:31N 52°28' E 004°35'0 0.0
2015-Jan-20 04:31N 52°28' E 004°35'0 0.0
2015-Jan-20 03:31N 52°28' E 004°35'0 0.0
2015-Jan-20 02:19N 52°28' E 004°35'0 0.0
2015-Jan-20 01:19N 52°28' E 004°35'0 0.0
2015-Jan-20 00:31N 52°28' E 004°35'0 0.0
2015-Jan-19 23:31N 52°28' E 004°35'0 0.0
2015-Jan-19 22:31N 52°28' E 004°35'0 0.0
2015-Jan-19 21:31N 52°28' E 004°35'0 0.0
2015-Jan-19 20:31N 52°28' E 004°35'0 0.0
2015-Jan-19 19:28N 52°28' E 004°35'0 0.0
2015-Jan-19 18:34N 52°28' E 004°35'0 0.0
2015-Jan-19 17:34N 52°28' E 004°35'0 0.0
2015-Jan-19 16:30N 52°28' E 004°35'0 0.0
2015-Jan-19 15:33N 52°28' E 004°35'0 0.0
2015-Jan-19 14:33N 52°28' E 004°35'0 0.0
2015-Jan-19 13:33N 52°28' E 004°35'0 0.0
2015-Jan-19 12:30N 52°28' E 004°35'0 0.0
2015-Jan-19 11:33N 52°28' E 004°35'0 0.0
2015-Jan-19 10:33N 52°28' E 004°35'0 0.0
2015-Jan-19 09:33N 52°28' E 004°35'0 0.0
2015-Jan-19 08:33N 52°28' E 004°35'0 0.0
2015-Jan-19 07:33N 52°28' E 004°35'0 0.0
2015-Jan-19 06:33N 52°28' E 004°35'0 0.0
2015-Jan-19 05:33N 52°28' E 004°35'0 0.0
2015-Jan-19 04:33N 52°28' E 004°35'0 0.0
2015-Jan-19 03:33N 52°28' E 004°35'0 0.0
2015-Jan-19 02:33N 52°28' E 004°35'3 2.6
2015-Jan-19 01:34N 52°28' E 004°31'9 9.1
2015-Jan-19 00:33N 52°29' E 004°16'9 8.6
2015-Jan-18 23:33N 52°28' E 004°02'9 8.8
2015-Jan-18 22:33N 52°26' E 003°48'70 8.8
2015-Jan-18 14:33N 51°38' E 002°25'10 9.9
2015-Jan-18 13:33N 51°30' E 002°15'1110.5
2015-Jan-18 12:33N 51°20' E 002°09'1111.1
2015-Jan-18 11:34N 51°12' E 001°58'1211.9
2015-Jan-18 10:34N 51°05' E 001°42'1212.3
2015-Jan-18 09:33N 50°55' E 001°29'5410.0
2015-Jan-18 04:08N 50°22' E 000°22'11010.9
2015-Jan-17 18:00N 49°54' W 002°24'15813.1 250 / 71012.8 0.5 9.2 2.311.2
2015-Jan-17 06:00N 48°30' W 005°48'15112.6 250 / 111016.427.0 0.5 9.2 4.311.8
2015-Jan-16 18:00N 47°18' W 009°06'108 9.0 250 / 141016.810.8 1.0 8.8 3.112.2
2015-Jan-16 06:00N 45°42' W 010°18'108 9.0 300 / 211008.010.8 10.2 3.813.1
2015-Jan-15 18:00N 43°54' W 010°18'234 9.8 220 / 101006.5 5.4 0.510.0 4.713.3
2015-Jan-14 18:00N 40°00' W 010°00'5910.8 230 / 81024.210.8 0.514.0 8.314.8
2015-Jan-14 12:32N 39°01' W 009°53'1111.1
2015-Jan-14 11:33N 38°50' W 009°52'1211.7
2015-Jan-14 10:33N 38°39' W 009°52'1211.6
2015-Jan-14 09:33N 38°27' W 009°50'1211.7
2015-Jan-14 08:31N 38°15' W 009°49'1411.4
2015-Jan-14 07:17N 38°01' W 009°48'1211.4
2015-Jan-14 06:12N 37°49' W 009°47'837.3
2015-Jan-14 06:00N 37°42' W 009°42'9011.3 1031.010.8 15.013.015.8
2015-Jan-13 22:04N 36°12' W 009°41'5413.3
2015-Jan-13 18:00N 35°18' W 009°36'5710.4 060 / 121024.910.8 1.016.913.417.0
2015-Jan-13 12:33N 34°21' W 009°34'1711.8
2015-Jan-13 11:05N 34°04' W 009°32'  

Dump ship's entire track history